Time;durP1;ratioP1;P1;durP2;ratioP2;P2;SDS_P1;SDS_P2;PMS_P1;PMS_P2;Temp;Humidity;BMP_temperature;BMP_pressure;BME280_temperature;BME280_humidity;BME280_pressure;Samples;Min_cycle;Max_cycle;Signal;HPM_P1;HPM_P2
2022/10/12 00:02:46;;;;;;;13.20;12.00;;;17.00;99.90;;;;;;6227285;28;20533;-59
2022/10/12 00:06:00;;;;;;;15.80;14.20;;;17.10;99.90;;;;;;6231703;28;20576;-59
2022/10/12 00:09:05;;;;;;;16.20;13.23;;;17.00;99.90;;;;;;6232281;28;20487;-59
2022/10/12 00:12:08;;;;;;;16.40;14.10;;;17.00;99.90;;;;;;6242588;28;20487;-59
2022/10/12 00:15:12;;;;;;;14.30;12.80;;;17.00;99.90;;;;;;6237149;28;20479;-59
2022/10/12 00:18:15;;;;;;;14.83;13.23;;;17.00;99.90;;;;;;6239198;28;20476;-59
2022/10/12 00:21:19;;;;;;;14.50;13.20;;;17.00;99.90;;;;;;6235388;28;20484;-59
2022/10/12 00:24:22;;;;;;;13.90;12.50;;;17.00;99.90;;;;;;6236418;28;20474;-59
2022/10/12 00:27:25;;;;;;;16.00;13.40;;;17.00;99.90;;;;;;6235877;28;20476;-59
2022/10/12 00:30:30;;;;;;;14.47;13.00;;;17.00;99.90;;;;;;6236649;28;20953;-59
2022/10/12 00:33:33;;;;;;;14.10;12.63;;;17.00;99.90;;;;;;6228796;28;20476;-60
2022/10/12 00:36:36;;;;;;;18.20;14.77;;;17.00;99.90;;;;;;6230902;28;20583;-62
2022/10/12 00:39:40;;;;;;;15.40;12.50;;;17.00;99.90;;;;;;6233433;28;20956;-62
2022/10/12 00:42:43;;;;;;;14.20;12.87;;;17.00;99.90;;;;;;6235506;28;21016;-62
2022/10/12 00:45:47;;;;;;;18.60;13.73;;;16.90;99.90;;;;;;6236046;28;20484;-62
2022/10/12 00:48:59;;;;;;;15.53;13.80;;;17.00;99.90;;;;;;6235268;28;20565;-63
2022/10/12 00:52:08;;;;;;;14.83;13.17;;;17.00;99.90;;;;;;6236546;28;20484;-63
2022/10/12 00:55:14;;;;;;;14.60;13.40;;;17.00;99.90;;;;;;6248378;28;20475;-63
2022/10/12 00:58:18;;;;;;;14.17;12.50;;;16.90;99.90;;;;;;6247980;28;20490;-63
2022/10/12 01:01:23;;;;;;;17.33;12.93;;;16.90;99.90;;;;;;6248605;28;20467;-63
2022/10/12 01:04:27;;;;;;;16.27;14.57;;;16.90;99.90;;;;;;6248164;28;20486;-63
2022/10/12 01:07:30;;;;;;;14.07;12.50;;;16.90;99.90;;;;;;6248747;28;20455;-63
2022/10/12 01:10:34;;;;;;;16.03;14.43;;;16.90;99.90;;;;;;6248355;28;20953;-63
2022/10/12 01:13:37;;;;;;;15.80;14.03;;;16.80;99.90;;;;;;6236831;28;20459;-63
2022/10/12 01:16:49;;;;;;;14.20;12.93;;;16.80;99.90;;;;;;6228804;28;20478;-63
2022/10/12 01:20:21;;;;;;;17.27;12.17;;;16.80;99.90;;;;;;6228658;28;20464;-62
2022/10/12 01:23:59;;;;;;;13.37;12.13;;;16.90;99.90;;;;;;6228622;28;20468;-63
2022/10/12 01:27:34;;;;;;;13.67;12.27;;;16.80;99.90;;;;;;6228169;28;20467;-63
2022/10/12 01:30:43;;;;;;;14.50;13.10;;;16.80;99.90;;;;;;6228601;28;20810;-62
2022/10/12 01:33:51;;;;;;;14.40;12.90;;;16.80;99.90;;;;;;6228285;28;20542;-64
2022/10/12 01:37:01;;;;;;;15.40;13.90;;;16.70;99.90;;;;;;6228105;28;20483;-63
2022/10/12 01:40:12;;;;;;;18.53;13.90;;;16.60;99.90;;;;;;6227870;28;20480;-63
2022/10/12 01:43:17;;;;;;;16.27;14.50;;;16.60;99.90;;;;;;6228280;28;20476;-64
2022/10/12 01:46:44;;;;;;;14.30;13.00;;;16.40;99.90;;;;;;6227564;28;20487;-62
2022/10/12 01:49:47;;;;;;;14.20;12.77;;;16.50;99.90;;;;;;6227877;28;20563;-63
2022/10/12 01:53:01;;;;;;;17.73;13.47;;;16.40;99.90;;;;;;6227914;28;20483;-64
2022/10/12 01:56:11;;;;;;;14.73;13.20;;;16.40;99.90;;;;;;6227628;28;20472;-64
2022/10/12 01:59:22;;;;;;;15.57;14.20;;;16.40;99.90;;;;;;6227648;28;20546;-64
2022/10/12 02:02:31;;;;;;;14.57;12.90;;;16.40;99.90;;;;;;6227310;28;20487;-63
2022/10/12 02:05:42;;;;;;;13.17;12.07;;;16.40;99.90;;;;;;6239801;28;20564;-63
2022/10/12 02:08:50;;;;;;;14.33;12.80;;;16.50;99.90;;;;;;6251835;28;20468;-63
2022/10/12 02:11:57;;;;;;;14.40;12.97;;;16.40;99.90;;;;;;6251937;28;20478;-63
2022/10/12 02:15:04;;;;;;;13.70;12.33;;;16.40;99.90;;;;;;6251640;28;20479;-62
2022/10/12 02:18:12;;;;;;;13.87;12.20;;;16.40;99.90;;;;;;6240988;28;20946;-63
2022/10/12 02:21:20;;;;;;;13.43;12.20;;;16.40;99.90;;;;;;6225888;28;20483;-63
2022/10/12 02:24:24;;;;;;;16.37;12.53;;;16.40;99.90;;;;;;6225414;28;20951;-62
2022/10/12 02:27:27;;;;;;;12.47;11.37;;;16.40;99.90;;;;;;6224601;28;20472;-63
2022/10/12 02:30:34;;;;;;;15.87;12.37;;;16.40;99.90;;;;;;6225323;28;20468;-63
2022/10/12 02:33:46;;;;;;;14.10;12.60;;;16.30;99.90;;;;;;6241946;28;20479;-62
2022/10/12 02:36:53;;;;;;;15.20;11.77;;;16.30;99.90;;;;;;6251188;28;20486;-64
2022/10/12 02:40:03;;;;;;;13.73;12.40;;;16.30;99.90;;;;;;6250961;28;20482;-63
2022/10/12 02:43:12;;;;;;;15.07;11.50;;;16.30;99.90;;;;;;6250889;28;20503;-63
2022/10/12 02:46:18;;;;;;;14.07;11.23;;;16.30;99.90;;;;;;6250845;28;20479;-64
2022/10/12 02:49:25;;;;;;;14.40;12.87;;;16.30;99.90;;;;;;6250670;28;20479;-64
2022/10/12 02:52:29;;;;;;;15.03;11.43;;;16.30;99.90;;;;;;6250797;28;20915;-63
2022/10/12 02:55:32;;;;;;;14.03;12.20;;;16.30;99.90;;;;;;6250659;28;20494;-63
2022/10/12 02:58:36;;;;;;;12.23;11.13;;;16.30;99.90;;;;;;6250801;28;20466;-63
2022/10/12 03:01:40;;;;;;;16.93;12.13;;;16.20;99.90;;;;;;6250467;28;20483;-64
2022/10/12 03:04:45;;;;;;;13.40;12.17;;;16.20;99.90;;;;;;6250243;28;20502;-62
2022/10/12 03:07:48;;;;;;;15.70;13.40;;;16.20;99.90;;;;;;6250465;28;20470;-63
2022/10/12 03:10:51;;;;;;;14.87;13.30;;;16.10;99.90;;;;;;6250777;28;20968;-64
2022/10/12 03:13:55;;;;;;;15.90;14.60;;;16.20;99.90;;;;;;6252671;28;20471;-62
2022/10/12 03:16:58;;;;;;;17.40;13.67;;;16.20;99.90;;;;;;6253082;28;20478;-64
2022/10/12 03:20:03;;;;;;;18.03;14.23;;;16.10;99.90;;;;;;6252927;28;20548;-64
2022/10/12 03:23:06;;;;;;;17.20;12.50;;;16.10;99.90;;;;;;6251967;28;20965;-63
2022/10/12 03:26:09;;;;;;;16.03;12.67;;;16.10;99.90;;;;;;6251957;28;20805;-62
2022/10/12 03:29:13;;;;;;;13.30;11.90;;;16.10;99.90;;;;;;6252158;28;20471;-64
2022/10/12 03:32:16;;;;;;;14.37;11.73;;;16.10;99.90;;;;;;6251658;28;20475;-64
2022/10/12 03:35:21;;;;;;;13.50;12.07;;;16.10;99.90;;;;;;6251653;28;20533;-62
2022/10/12 03:38:24;;;;;;;14.30;12.80;;;16.00;99.90;;;;;;6252217;28;20906;-63
2022/10/12 03:41:27;;;;;;;12.77;11.47;;;16.00;99.90;;;;;;6251889;28;20474;-63
2022/10/12 03:44:30;;;;;;;15.63;12.60;;;16.10;99.90;;;;;;6250687;28;20479;-63
2022/10/12 03:47:34;;;;;;;15.83;12.83;;;16.00;99.90;;;;;;6249241;28;20597;-63
2022/10/12 03:50:39;;;;;;;17.17;12.40;;;16.00;99.90;;;;;;6249397;28;20471;-64
2022/10/12 03:53:42;;;;;;;12.33;11.20;;;16.00;99.90;;;;;;6249008;28;20525;-64
2022/10/12 03:56:47;;;;;;;16.27;14.53;;;16.00;99.90;;;;;;6249396;28;20503;-65
2022/10/12 03:59:51;;;;;;;13.27;11.87;;;15.90;99.90;;;;;;6249764;28;20482;-65
2022/10/12 04:02:54;;;;;;;14.37;12.87;;;15.90;99.90;;;;;;6249516;28;20563;-64
2022/10/12 04:05:59;;;;;;;16.47;14.10;;;15.90;99.90;;;;;;6249313;28;20562;-65
2022/10/12 04:09:02;;;;;;;12.63;11.40;;;15.90;99.90;;;;;;6248947;28;20533;-64
2022/10/12 04:12:06;;;;;;;15.03;13.53;;;15.90;99.90;;;;;;6251045;28;20771;-64
2022/10/12 04:15:09;;;;;;;15.03;12.63;;;15.90;99.90;;;;;;6249586;28;20976;-64
2022/10/12 04:18:13;;;;;;;14.07;12.60;;;15.90;99.90;;;;;;6250972;28;20693;-64
2022/10/12 04:21:20;;;;;;;12.90;11.80;;;15.90;99.90;;;;;;6249839;28;20476;-64
2022/10/12 04:24:23;;;;;;;15.50;13.10;;;15.80;99.90;;;;;;6248858;28;20483;-63
2022/10/12 04:27:26;;;;;;;16.13;12.70;;;15.80;99.90;;;;;;6249276;28;20479;-63
2022/10/12 04:30:29;;;;;;;13.53;12.40;;;15.80;99.90;;;;;;6249438;28;20475;-63
2022/10/12 04:33:33;;;;;;;14.53;13.13;;;15.80;99.90;;;;;;6248521;28;20976;-63
2022/10/12 04:36:38;;;;;;;13.17;11.83;;;15.70;99.90;;;;;;6245366;28;20483;-63
2022/10/12 04:39:41;;;;;;;16.87;12.70;;;15.80;99.90;;;;;;6249418;28;20490;-64
2022/10/12 04:42:44;;;;;;;17.17;12.77;;;15.80;99.90;;;;;;6249368;28;20467;-64
2022/10/12 04:45:54;;;;;;;14.80;13.30;;;15.70;99.90;;;;;;6249312;28;20960;-63
2022/10/12 04:48:57;;;;;;;13.87;12.40;;;15.60;99.90;;;;;;6254228;28;20968;-64
2022/10/12 04:52:02;;;;;;;15.40;13.53;;;15.60;99.90;;;;;;6253891;28;20797;-63
2022/10/12 04:55:06;;;;;;;18.73;12.50;;;15.50;99.90;;;;;;6254120;28;20482;-63
2022/10/12 04:58:09;;;;;;;16.60;12.27;;;15.50;99.90;;;;;;6253923;28;20482;-64
2022/10/12 05:01:12;;;;;;;14.13;12.70;;;15.50;99.90;;;;;;6252716;28;20491;-64
2022/10/12 05:04:16;;;;;;;17.03;11.60;;;15.50;99.90;;;;;;6253863;28;20485;-63
2022/10/12 05:07:20;;;;;;;14.13;12.83;;;15.40;99.90;;;;;;6253841;28;20852;-63
2022/10/12 05:10:23;;;;;;;17.30;13.30;;;15.50;99.90;;;;;;6253928;28;20478;-64
2022/10/12 05:13:27;;;;;;;14.90;12.90;;;15.40;99.90;;;;;;6253524;28;20501;-64
2022/10/12 05:16:30;;;;;;;18.70;14.00;;;15.40;99.90;;;;;;6252981;28;20513;-64
2022/10/12 05:19:34;;;;;;;15.23;13.67;;;15.40;99.90;;;;;;6228901;28;20448;-64
2022/10/12 05:22:39;;;;;;;16.20;13.87;;;15.40;99.90;;;;;;6228951;28;20809;-64
2022/10/12 05:25:42;;;;;;;17.43;15.37;;;15.40;99.90;;;;;;6229662;28;20539;-63
2022/10/12 05:28:45;;;;;;;16.40;13.23;;;15.30;99.90;;;;;;6229638;28;20506;-63
2022/10/12 05:31:49;;;;;;;15.37;13.87;;;15.40;99.90;;;;;;6229188;28;20482;-63
2022/10/12 05:34:52;;;;;;;20.57;14.50;;;15.40;99.90;;;;;;6229120;28;20480;-63
2022/10/12 05:37:56;;;;;;;16.20;14.70;;;15.40;99.90;;;;;;6219928;28;20586;-64
2022/10/12 05:40:59;;;;;;;16.40;14.40;;;15.40;99.90;;;;;;6228649;28;20549;-63
2022/10/12 05:44:03;;;;;;;15.10;13.60;;;15.40;99.90;;;;;;6228669;28;20979;-62
2022/10/12 05:47:06;;;;;;;16.17;13.60;;;15.50;99.90;;;;;;6228378;28;20467;-63
2022/10/12 05:50:10;;;;;;;18.50;16.60;;;15.50;99.90;;;;;;6228581;28;21217;-64
2022/10/12 05:53:15;;;;;;;20.30;16.90;;;15.50;99.90;;;;;;6228353;28;20468;-64
2022/10/12 05:56:19;;;;;;;22.60;16.20;;;15.60;99.90;;;;;;6228122;28;20487;-64
2022/10/12 05:59:22;;;;;;;19.17;15.33;;;15.60;99.90;;;;;;6226769;28;20484;-64
2022/10/12 06:02:25;;;;;;;17.83;13.50;;;15.70;99.90;;;;;;6228245;28;20484;-64
2022/10/12 06:05:28;;;;;;;15.17;13.50;;;15.70;99.90;;;;;;6228110;28;20491;-63
2022/10/12 06:08:34;;;;;;;15.93;13.40;;;15.70;99.90;;;;;;6228197;28;20930;-63
2022/10/12 06:11:38;;;;;;;16.17;11.87;;;15.80;99.90;;;;;;6234193;28;21008;-64
2022/10/12 06:14:41;;;;;;;17.77;13.30;;;15.90;99.90;;;;;;6229364;28;20542;-64
2022/10/12 06:17:44;;;;;;;13.97;12.70;;;15.90;99.90;;;;;;6227780;28;20475;-64
2022/10/12 06:20:48;;;;;;;13.90;12.50;;;16.00;99.90;;;;;;6227136;28;20476;-64
2022/10/12 06:23:52;;;;;;;14.63;13.13;;;16.10;99.90;;;;;;6228281;28;20468;-64
2022/10/12 06:26:56;;;;;;;19.00;13.77;;;16.30;99.90;;;;;;6227749;28;20464;-64
2022/10/12 06:29:59;;;;;;;14.37;12.87;;;16.40;99.90;;;;;;6227842;28;20487;-64
2022/10/12 06:33:02;;;;;;;14.73;12.63;;;16.50;99.90;;;;;;6227395;28;20476;-65
2022/10/12 06:36:06;;;;;;;17.23;13.13;;;16.60;99.90;;;;;;6227905;28;20488;-63
2022/10/12 06:39:11;;;;;;;14.70;12.70;;;16.80;99.90;;;;;;6227168;28;21007;-65
2022/10/12 06:42:14;;;;;;;20.63;12.57;;;16.90;99.90;;;;;;6217840;28;20498;-64
2022/10/12 06:45:18;;;;;;;13.33;12.00;;;17.00;99.90;;;;;;6226714;28;20882;-63
2022/10/12 06:48:21;;;;;;;13.53;12.23;;;17.20;99.90;;;;;;6226692;28;20491;-64
2022/10/12 06:51:25;;;;;;;15.23;12.43;;;17.20;99.90;;;;;;6226306;28;20480;-64
2022/10/12 06:54:30;;;;;;;14.47;12.03;;;17.30;99.90;;;;;;6226895;28;20468;-65
2022/10/12 06:57:33;;;;;;;14.70;12.50;;;17.50;99.90;;;;;;6226881;28;20468;-64
2022/10/12 07:00:37;;;;;;;15.27;13.37;;;17.60;99.90;;;;;;6226733;28;20476;-64
2022/10/12 07:03:40;;;;;;;12.97;11.50;;;17.80;99.90;;;;;;6226612;28;20567;-65
2022/10/12 07:06:44;;;;;;;13.27;11.90;;;17.90;99.90;;;;;;6226174;28;20484;-64
2022/10/12 07:09:49;;;;;;;12.93;11.63;;;18.10;99.90;;;;;;6226834;28;20233;-64
2022/10/12 07:12:52;;;;;;;15.57;12.50;;;18.30;99.90;;;;;;6226730;28;20476;-64
2022/10/12 07:15:55;;;;;;;14.83;13.07;;;18.50;99.90;;;;;;6226658;28;20495;-64
2022/10/12 07:18:59;;;;;;;15.83;13.57;;;18.60;99.90;;;;;;6226522;28;20236;-64
2022/10/12 07:22:02;;;;;;;14.20;12.30;;;18.80;99.90;;;;;;6226390;28;20294;-64
2022/10/12 07:25:08;;;;;;;14.77;12.73;;;19.10;99.90;;;;;;6226022;28;20248;-63
2022/10/12 07:28:11;;;;;;;13.77;12.47;;;19.30;99.90;;;;;;6226423;28;20243;-63
2022/10/12 07:31:15;;;;;;;14.57;13.10;;;19.60;99.90;;;;;;6226154;28;20243;-63
2022/10/12 07:34:18;;;;;;;16.13;13.47;;;19.90;99.90;;;;;;6226056;28;20233;-64
2022/10/12 07:37:22;;;;;;;15.80;14.30;;;20.00;99.90;;;;;;6226332;28;20236;-64
2022/10/12 07:40:26;;;;;;;14.30;12.80;;;20.30;99.90;;;;;;6226130;28;20244;-64
2022/10/12 07:43:32;;;;;;;14.17;12.70;;;20.30;99.90;;;;;;6221315;28;20224;-64
2022/10/12 07:46:35;;;;;;;15.37;13.87;;;20.50;99.90;;;;;;6226123;28;20284;-63
2022/10/12 07:49:38;;;;;;;16.33;13.73;;;20.60;99.90;;;;;;6226352;28;20312;-64
2022/10/12 07:52:41;;;;;;;16.33;14.80;;;20.70;99.90;;;;;;6226248;28;20205;-64
2022/10/12 07:55:46;;;;;;;14.90;13.40;;;20.90;99.90;;;;;;6236663;28;20669;-63
2022/10/12 07:58:51;;;;;;;15.77;14.27;;;21.20;99.90;;;;;;6231077;28;20371;-63
2022/10/12 08:01:54;;;;;;;15.27;13.30;;;21.50;99.90;;;;;;6225887;28;20229;-64
2022/10/12 08:04:57;;;;;;;18.53;13.23;;;21.70;99.90;;;;;;6225346;28;20232;-64
2022/10/12 08:08:00;;;;;;;16.70;13.23;;;21.60;98.30;;;;;;6225932;28;20713;-64
2022/10/12 08:11:07;;;;;;;16.30;13.57;;;21.70;97.50;;;;;;6225659;28;20236;-64
2022/10/12 08:14:14;;;;;;;12.40;11.20;;;21.80;97.10;;;;;;6226099;28;20241;-63
2022/10/12 08:17:17;;;;;;;13.30;12.17;;;21.80;96.90;;;;;;6225349;28;20225;-64
2022/10/12 08:20:20;;;;;;;17.00;14.20;;;21.70;95.70;;;;;;6230894;28;20748;-65
2022/10/12 08:23:24;;;;;;;16.90;14.23;;;21.70;96.10;;;;;;6239763;28;20299;-67
2022/10/12 08:26:29;;;;;;;15.90;12.43;;;21.70;96.10;;;;;;6226095;28;20248;-64
2022/10/12 08:29:32;;;;;;;15.33;13.80;;;21.80;95.70;;;;;;6250185;28;20232;-62
2022/10/12 08:32:35;;;;;;;15.07;13.57;;;21.30;95.50;;;;;;6249978;28;20583;-61
2022/10/12 08:35:39;;;;;;;14.33;13.00;;;21.20;95.60;;;;;;6245973;28;20690;-62
2022/10/12 08:38:44;;;;;;;16.33;14.73;;;21.50;96.20;;;;;;6225159;28;20228;-62
2022/10/12 08:42:02;;;;;;;17.23;14.80;;;22.20;95.50;;;;;;6225456;28;20225;-60
2022/10/12 08:45:23;;;;;;;16.70;15.00;;;22.40;94.80;;;;;;6225056;28;20233;-60
2022/10/12 08:48:40;;;;;;;18.17;15.70;;;22.40;94.70;;;;;;6225131;28;20244;-61
2022/10/12 08:51:47;;;;;;;16.40;14.80;;;22.10;94.90;;;;;;6224587;28;20229;-60
2022/10/12 08:54:50;;;;;;;17.83;16.13;;;21.60;95.90;;;;;;6236839;28;20244;-60
2022/10/12 08:57:54;;;;;;;16.37;14.77;;;21.40;96.10;;;;;;6224141;28;20252;-60
2022/10/12 09:01:02;;;;;;;16.33;14.83;;;21.40;96.60;;;;;;6225069;28;20233;-59
2022/10/12 09:04:14;;;;;;;19.20;17.30;;;21.20;96.60;;;;;;6225194;28;20243;-61
2022/10/12 09:07:22;;;;;;;18.57;16.57;;;21.00;96.80;;;;;;6224754;28;20679;-61
2022/10/12 09:10:37;;;;;;;18.07;16.47;;;20.80;97.70;;;;;;6225746;28;20229;-62
2022/10/12 09:13:50;;;;;;;18.67;16.13;;;20.90;97.90;;;;;;6200731;28;20229;-60
2022/10/12 09:16:56;;;;;;;18.13;16.20;;;21.10;97.60;;;;;;6200854;28;20234;-61
2022/10/12 09:20:04;;;;;;;24.03;14.57;;;21.10;97.20;;;;;;6207689;28;20237;-61
2022/10/12 09:23:27;;;;;;;18.27;15.20;;;21.10;97.30;;;;;;6225249;28;20632;-61
2022/10/12 09:26:35;;;;;;;19.80;15.17;;;21.30;96.60;;;;;;6224863;28;20702;-61
2022/10/12 09:29:39;;;;;;;16.17;14.17;;;21.00;96.30;;;;;;6224936;28;20245;-61
2022/10/12 09:33:05;;;;;;;17.37;13.97;;;20.90;96.50;;;;;;6224427;28;20581;-61
2022/10/12 09:36:12;;;;;;;15.97;13.10;;;21.20;96.20;;;;;;6228682;28;20241;-61
2022/10/12 09:39:19;;;;;;;18.43;14.80;;;21.90;95.60;;;;;;6227525;28;20239;-61
2022/10/12 09:42:22;;;;;;;16.73;14.83;;;22.40;94.50;;;;;;6227953;28;20229;-61
2022/10/12 09:45:31;;;;;;;14.77;13.37;;;23.20;93.40;;;;;;6232788;28;20670;-61
2022/10/12 09:48:34;;;;;;;16.30;13.70;;;23.40;92.60;;;;;;6252184;28;20294;-62
2022/10/12 09:51:37;;;;;;;14.17;12.77;;;24.00;92.20;;;;;;6252917;28;20314;-61
2022/10/12 09:54:46;;;;;;;14.90;13.60;;;26.40;88.50;;;;;;6231756;28;20232;-63
2022/10/12 09:57:54;;;;;;;13.37;12.27;;;28.10;76.60;;;;;;6227956;28;20588;-61
2022/10/12 10:01:20;;;;;;;15.40;13.90;;;28.30;72.20;;;;;;6228673;28;20682;-61
2022/10/12 10:04:26;;;;;;;16.33;13.27;;;28.60;66.80;;;;;;6228274;28;20674;-61
2022/10/12 10:07:32;;;;;;;14.40;12.83;;;28.40;66.20;;;;;;6228443;28;20243;-61
2022/10/12 10:10:35;;;;;;;13.70;12.70;;;28.30;66.20;;;;;;6227945;28;20201;-63
2022/10/12 10:13:44;;;;;;;14.30;12.97;;;28.40;64.10;;;;;;6228795;28;20215;-62
2022/10/12 10:16:51;;;;;;;14.30;13.00;;;27.60;64.50;;;;;;6228335;28;20239;-62
2022/10/12 10:19:56;;;;;;;14.27;12.73;;;28.40;66.20;;;;;;6228061;28;20239;-62
2022/10/12 10:23:02;;;;;;;13.43;12.32;;;32.30;56.60;;;;;;6227495;28;20224;-62
2022/10/12 10:26:08;;;;;;;13.30;12.27;;;36.30;45.20;;;;;;6227694;28;20242;-63
2022/10/12 10:29:30;;;;;;;13.60;12.35;;;38.40;39.80;;;;;;6227351;28;20679;-62
2022/10/12 10:32:35;;;;;;;15.15;12.07;;;40.20;33.80;;;;;;6227483;28;20684;-62
2022/10/12 10:35:39;;;;;;;12.68;11.32;;;40.60;31.90;;;;;;6227191;28;20679;-63
2022/10/12 10:39:05;;;;;;;11.52;10.50;;;41.40;29.40;;;;;;6227547;28;20231;-63
2022/10/12 10:42:17;;;;;;;11.35;10.35;;;41.10;29.00;;;;;;6226147;28;20237;-63
2022/10/12 10:45:25;;;;;;;12.65;11.20;;;40.70;28.90;;;;;;6231864;28;20253;-63
2022/10/12 10:48:32;;;;;;;11.20;10.27;;;41.00;28.10;;;;;;6252068;28;20239;-63
2022/10/12 10:51:44;;;;;;;10.48;9.77;;;41.40;27.50;;;;;;6251597;28;20322;-62
2022/10/12 10:54:48;;;;;;;11.88;10.73;;;41.70;27.00;;;;;;6238900;28;20251;-62
2022/10/12 10:57:59;;;;;;;13.35;12.18;;;41.10;27.10;;;;;;6217395;28;20240;-62
2022/10/12 11:01:14;;;;;;;11.15;10.10;;;40.30;27.80;;;;;;6226722;28;20295;-63
2022/10/12 11:04:22;;;;;;;12.10;11.07;;;39.50;28.30;;;;;;6226582;28;20256;-62
2022/10/12 11:07:31;;;;;;;10.27;9.27;;;38.20;28.80;;;;;;6227003;28;20234;-62
2022/10/12 11:10:41;;;;;;;11.90;9.57;;;37.60;29.50;;;;;;6226328;28;20222;-63
2022/10/12 11:13:53;;;;;;;9.63;8.77;;;37.30;29.80;;;;;;6226432;28;20591;-64
2022/10/12 11:17:00;;;;;;;11.90;9.05;;;37.90;30.00;;;;;;6226447;28;20229;-62
2022/10/12 11:20:29;;;;;;;9.50;8.65;;;37.80;29.40;;;;;;6226470;28;20235;-64
2022/10/12 11:23:40;;;;;;;15.52;9.45;;;36.20;29.70;;;;;;6226325;28;20244;-62
2022/10/12 11:26:47;;;;;;;9.73;8.32;;;34.60;32.30;;;;;;6226680;28;20666;-62
2022/10/12 11:29:55;;;;;;;10.52;9.20;;;33.50;33.60;;;;;;6223612;28;20220;-61
2022/10/12 11:33:15;;;;;;;10.07;9.02;;;32.50;35.50;;;;;;6224411;28;20322;-61
2022/10/12 11:36:23;;;;;;;9.50;8.70;;;32.10;36.80;;;;;;6219338;28;20236;-64
2022/10/12 11:39:34;;;;;;;9.35;8.55;;;32.10;36.90;;;;;;6221850;28;20239;-62
2022/10/12 11:42:41;;;;;;;9.88;8.02;;;33.10;35.30;;;;;;6220389;28;20579;-63
2022/10/12 11:45:49;;;;;;;9.32;8.35;;;35.30;33.80;;;;;;6230001;28;20362;-64
2022/10/12 11:48:59;;;;;;;8.38;7.68;;;37.20;30.80;;;;;;6248305;28;20242;-61
2022/10/12 11:52:10;;;;;;;9.27;7.88;;;36.90;30.10;;;;;;6245564;28;20243;-63
2022/10/12 11:55:28;;;;;;;10.40;8.57;;;36.80;30.70;;;;;;6221812;28;20242;-65
2022/10/12 11:58:35;;;;;;;11.13;9.77;;;37.10;30.10;;;;;;6220784;28;20328;-61
2022/10/12 12:02:09;;;;;;;10.90;8.90;;;36.40;30.30;;;;;;6223631;28;20323;-61
2022/10/12 12:05:13;;;;;;;9.60;8.70;;;35.60;31.00;;;;;;6223684;28;20244;-62
2022/10/12 12:08:47;;;;;;;10.20;9.20;;;35.70;31.60;;;;;;6224964;28;20679;-62
2022/10/12 12:11:50;;;;;;;9.60;8.65;;;35.40;31.10;;;;;;6224464;28;20234;-63
2022/10/12 12:15:06;;;;;;;10.35;9.25;;;35.00;32.30;;;;;;6224983;28;20241;-62
2022/10/12 12:18:13;;;;;;;9.18;8.48;;;33.60;33.00;;;;;;6224965;28;20243;-62
2022/10/12 12:21:16;;;;;;;10.23;9.43;;;32.30;34.40;;;;;;6224939;28;20232;-62
2022/10/12 12:24:22;;;;;;;10.93;8.63;;;31.00;36.30;;;;;;6225010;28;20735;-63
2022/10/12 12:27:32;;;;;;;10.63;9.30;;;29.90;38.20;;;;;;6227670;28;20235;-61
2022/10/12 12:30:38;;;;;;;9.33;8.50;;;28.90;40.60;;;;;;6233782;28;20227;-62
2022/10/12 12:33:44;;;;;;;13.07;8.03;;;28.00;42.90;;;;;;6248260;28;20227;-62
2022/10/12 12:36:50;;;;;;;11.90;10.70;;;27.50;43.90;;;;;;6210243;28;20236;-62
2022/10/12 12:39:57;;;;;;;12.73;10.30;;;26.60;45.50;;;;;;6224878;28;20228;-62
2022/10/12 12:43:43;;;;;;;10.90;9.80;;;25.70;47.80;;;;;;6225139;28;20251;-62
2022/10/12 12:47:22;;;;;;;10.60;9.37;;;25.60;49.00;;;;;;6235914;28;20563;-62
2022/10/12 12:50:45;;;;;;;10.43;9.43;;;25.70;48.10;;;;;;6232729;28;20247;-61
2022/10/12 12:53:51;;;;;;;9.90;8.90;;;25.50;48.00;;;;;;6229472;28;20235;-62
2022/10/12 12:57:17;;;;;;;9.73;8.83;;;25.00;49.40;;;;;;6224798;28;20248;-62
2022/10/12 13:00:22;;;;;;;15.23;9.10;;;24.90;50.80;;;;;;6224633;28;20546;-61
2022/10/12 13:03:52;;;;;;;8.40;7.60;;;24.90;51.20;;;;;;6230020;28;20240;-61
2022/10/12 13:07:17;;;;;;;13.17;9.20;;;24.80;51.30;;;;;;6249038;28;20235;-60
2022/10/12 13:10:32;;;;;;;13.13;8.47;;;24.70;50.90;;;;;;6253595;28;20708;-61
2022/10/12 13:13:49;;;;;;;9.70;8.80;;;24.70;51.70;;;;;;6231818;28;20214;-64
2022/10/12 13:17:09;;;;;;;12.50;9.07;;;24.60;51.50;;;;;;6229451;28;20229;-62
2022/10/12 13:20:34;;;;;;;9.50;8.60;;;24.00;52.60;;;;;;6229604;28;20344;-64
2022/10/12 13:23:38;;;;;;;11.90;9.53;;;23.70;53.40;;;;;;6229567;28;20237;-62
2022/10/12 13:26:44;;;;;;;10.23;9.20;;;23.30;54.10;;;;;;6228809;28;20705;-61
2022/10/12 13:29:55;;;;;;;10.70;9.60;;;23.10;55.00;;;;;;6228529;28;20229;-61
2022/10/12 13:33:03;;;;;;;11.57;9.30;;;23.00;55.50;;;;;;6227083;28;20391;-61
2022/10/12 13:36:12;;;;;;;11.07;9.87;;;22.70;55.80;;;;;;6227197;28;20633;-60
2022/10/12 13:39:18;;;;;;;11.73;8.80;;;22.60;56.60;;;;;;6227057;28;20229;-61
2022/10/12 13:42:26;;;;;;;9.80;8.80;;;22.60;57.20;;;;;;6227227;28;20599;-60
2022/10/12 13:45:31;;;;;;;15.17;8.67;;;22.50;57.10;;;;;;6233828;28;20540;-61
2022/10/12 13:48:34;;;;;;;15.17;10.97;;;22.60;57.20;;;;;;6252838;28;20564;-60
2022/10/12 13:51:59;;;;;;;13.43;10.73;;;22.60;57.00;;;;;;6231981;28;20248;-61
2022/10/12 13:55:15;;;;;;;9.93;8.90;;;22.80;56.70;;;;;;6227955;28;20240;-60
2022/10/12 13:58:24;;;;;;;9.23;8.33;;;22.80;56.10;;;;;;6228026;28;20237;-61
2022/10/12 14:01:29;;;;;;;10.60;7.50;;;22.90;56.10;;;;;;6227949;28;20233;-61
2022/10/12 14:04:34;;;;;;;8.33;7.43;;;22.70;55.20;;;;;;6225132;28;20524;-60
2022/10/12 14:07:39;;;;;;;13.43;8.00;;;22.60;55.10;;;;;;6228276;28;20283;-62
2022/10/12 14:10:43;;;;;;;9.87;6.60;;;22.50;55.30;;;;;;6228584;28;20232;-61
2022/10/12 14:13:47;;;;;;;8.13;7.40;;;22.40;55.00;;;;;;6228132;28;20221;-61
2022/10/12 14:16:53;;;;;;;7.27;6.63;;;22.40;54.90;;;;;;6228482;28;20221;-61
2022/10/12 14:20:13;;;;;;;9.10;7.03;;;22.40;55.10;;;;;;6227149;28;20559;-61
2022/10/12 14:23:22;;;;;;;9.37;7.20;;;22.40;55.50;;;;;;6227911;28;20677;-61
2022/10/12 14:26:32;;;;;;;10.90;8.37;;;22.30;55.80;;;;;;6227563;28;20275;-60
2022/10/12 14:29:40;;;;;;;9.53;8.60;;;22.10;56.30;;;;;;6227841;28;20548;-61
2022/10/12 14:32:46;;;;;;;9.73;8.60;;;21.90;57.10;;;;;;6227771;28;20237;-61
2022/10/12 14:35:51;;;;;;;10.80;9.07;;;21.90;57.90;;;;;;6226779;28;20240;-61
2022/10/12 14:38:54;;;;;;;8.87;8.00;;;21.70;58.30;;;;;;6226096;28;20225;-61
2022/10/12 14:42:16;;;;;;;9.37;8.07;;;21.60;59.10;;;;;;6227344;28;20316;-61
2022/10/12 14:45:24;;;;;;;10.90;8.23;;;21.60;59.90;;;;;;6232053;28;20239;-61
2022/10/12 14:48:29;;;;;;;9.17;8.23;;;21.50;61.30;;;;;;6251701;28;20236;-61
2022/10/12 14:51:33;;;;;;;10.60;9.50;;;21.40;61.10;;;;;;6251079;28;20607;-61
2022/10/12 14:54:36;;;;;;;12.47;9.30;;;21.30;61.40;;;;;;6237245;28;20346;-61
2022/10/12 14:57:39;;;;;;;9.43;8.60;;;21.20;62.10;;;;;;6227010;28;20229;-60
2022/10/12 15:00:43;;;;;;;10.60;8.80;;;21.20;62.80;;;;;;6227430;28;20694;-60
2022/10/12 15:03:48;;;;;;;11.37;8.30;;;21.20;63.60;;;;;;6227010;28;20247;-60
2022/10/12 15:06:51;;;;;;;12.93;9.10;;;21.10;64.60;;;;;;6226699;28;20607;-60
2022/10/12 15:09:54;;;;;;;9.60;8.63;;;21.00;64.60;;;;;;6222418;28;20586;-60
2022/10/12 15:12:58;;;;;;;12.57;9.17;;;20.60;65.90;;;;;;6226490;28;20233;-60
2022/10/12 15:16:01;;;;;;;15.97;14.30;;;20.50;67.00;;;;;;6226385;28;20232;-60
2022/10/12 15:19:06;;;;;;;15.27;12.37;;;20.30;67.90;;;;;;6226683;28;20233;-60
2022/10/12 15:22:14;;;;;;;16.20;13.07;;;20.20;68.80;;;;;;6226128;28;20252;-59
2022/10/12 15:25:21;;;;;;;11.17;10.13;;;20.00;69.50;;;;;;6226397;28;20618;-59
2022/10/12 15:28:26;;;;;;;10.93;8.67;;;19.80;70.30;;;;;;6226510;28;20239;-61
2022/10/12 15:31:29;;;;;;;11.27;8.90;;;19.80;71.10;;;;;;6225574;28;20229;-60
2022/10/12 15:34:34;;;;;;;13.33;9.43;;;19.70;71.90;;;;;;6225398;28;20574;-59
2022/10/12 15:37:37;;;;;;;8.73;8.03;;;19.50;72.60;;;;;;6225854;28;20217;-60
2022/10/12 15:40:42;;;;;;;11.80;10.60;;;19.50;73.40;;;;;;6225498;28;20209;-60
2022/10/12 15:43:45;;;;;;;11.87;10.43;;;19.60;74.10;;;;;;6225472;28;20336;-61
2022/10/12 15:46:51;;;;;;;12.33;9.60;;;19.40;75.40;;;;;;6242372;28;20235;-60
2022/10/12 15:49:55;;;;;;;14.70;11.40;;;19.30;76.40;;;;;;6249892;28;20282;-61
2022/10/12 15:52:58;;;;;;;12.97;11.67;;;19.20;77.60;;;;;;6249281;28;20662;-60
2022/10/12 15:56:02;;;;;;;11.97;10.93;;;19.10;78.50;;;;;;6224774;28;20228;-62